HBLAW EGBJ-LIML
Flight info
| Callsign | HBLAW |
|---|---|
| Flight time | 1h 42m |
| Altitude | 41000 |
| Route | SAWPE Q63 CPT UL9 BIG L15 MOTOX UL15 ETINO DCT DEVDI DCT ODINA |
| Aircraft | PC24/M-SBDGIJ1RWY/LB2 |
Departure
| Time | 2026-04-27 15:11 |
|---|---|
| Airport | Gloucestershire Airport (EGBJ) |
Arrival
| Time | 2026-04-27 16:53 |
|---|---|
| Airport | Milano Linate Airport (LIML) |
| Time | Latitude | Longitude | Altitude | Speed | Heading |
|---|---|---|---|---|---|
| 2026-04-27 14:52 | 51.89324 | -2.15801 | 97 ft | 0 kts | 259° |
| 2026-04-27 15:07 | 51.89324 | -2.15804 | 96 ft | 3 kts | 259° |
| 2026-04-27 15:07 | 51.89333 | -2.15847 | 94 ft | 6 kts | 340° |
| 2026-04-27 15:08 | 51.89386 | -2.15894 | 91 ft | 7 kts | 320° |
| 2026-04-27 15:08 | 51.89442 | -2.15945 | 93 ft | 12 kts | 353° |
| 2026-04-27 15:08 | 51.89460 | -2.15962 | 92 ft | 3 kts | 269° |
| 2026-04-27 15:08 | 51.89459 | -2.15970 | 93 ft | 0 kts | 262° |
| 2026-04-27 15:10 | 51.89429 | -2.16424 | 95 ft | 83 kts | 264° |
| 2026-04-27 15:11 | 51.89338 | -2.17741 | 220 ft | 142 kts | 260° |
| 2026-04-27 15:11 | 51.89224 | -2.19329 | 1102 ft | 143 kts | 263° |
| 2026-04-27 15:11 | 51.89013 | -2.21021 | 1873 ft | 161 kts | 261° |
| 2026-04-27 15:11 | 51.88689 | -2.22769 | 2678 ft | 179 kts | 251° |
| 2026-04-27 15:12 | 51.87782 | -2.24449 | 3336 ft | 216 kts | 213° |
| 2026-04-27 15:12 | 51.86362 | -2.25178 | 4676 ft | 214 kts | 189° |
| 2026-04-27 15:12 | 51.84853 | -2.25232 | 5897 ft | 225 kts | 173° |
| 2026-04-27 15:12 | 51.83366 | -2.24018 | 6277 ft | 261 kts | 135° |
| 2026-04-27 15:13 | 51.82425 | -2.21419 | 6290 ft | 276 kts | 109° |
| 2026-04-27 15:13 | 51.81754 | -2.18547 | 7306 ft | 261 kts | 112° |
| 2026-04-27 15:13 | 51.80971 | -2.16069 | 9020 ft | 235 kts | 122° |
| 2026-04-27 15:13 | 51.80030 | -2.13910 | 10122 ft | 240 kts | 127° |
| 2026-04-27 15:14 | 51.79003 | -2.11724 | 10978 ft | 245 kts | 126° |
| 2026-04-27 15:14 | 51.78003 | -2.09480 | 11920 ft | 248 kts | 125° |
| 2026-04-27 15:14 | 51.77002 | -2.07188 | 12810 ft | 252 kts | 125° |
| 2026-04-27 15:14 | 51.75996 | -2.04894 | 13704 ft | 256 kts | 125° |
| 2026-04-27 15:15 | 51.74939 | -2.02499 | 14567 ft | 261 kts | 126° |
| 2026-04-27 15:15 | 51.73878 | -2.00103 | 15402 ft | 264 kts | 126° |
| 2026-04-27 15:15 | 51.72820 | -1.97710 | 16236 ft | 267 kts | 126° |
| 2026-04-27 15:15 | 51.71733 | -1.95257 | 17069 ft | 270 kts | 126° |
| 2026-04-27 15:16 | 51.70635 | -1.92774 | 17908 ft | 274 kts | 126° |
| 2026-04-27 15:16 | 51.69515 | -1.90248 | 18687 ft | 279 kts | 126° |
| 2026-04-27 15:16 | 51.68377 | -1.87686 | 19415 ft | 282 kts | 126° |
| 2026-04-27 15:16 | 51.67225 | -1.85094 | 20136 ft | 286 kts | 126° |
| 2026-04-27 15:17 | 51.66073 | -1.82502 | 20843 ft | 290 kts | 125° |
| 2026-04-27 15:17 | 51.64889 | -1.79845 | 21559 ft | 294 kts | 125° |
| 2026-04-27 15:17 | 51.63690 | -1.77154 | 22276 ft | 298 kts | 125° |
| 2026-04-27 15:17 | 51.62472 | -1.74424 | 22984 ft | 302 kts | 125° |
| 2026-04-27 15:18 | 51.61239 | -1.71662 | 23688 ft | 306 kts | 124° |
| 2026-04-27 15:18 | 51.59990 | -1.68866 | 24293 ft | 310 kts | 124° |
| 2026-04-27 15:18 | 51.58752 | -1.66014 | 24857 ft | 312 kts | 118° |
| 2026-04-27 15:18 | 51.57900 | -1.62815 | 25426 ft | 312 kts | 105° |
| 2026-04-27 15:19 | 51.57202 | -1.59492 | 26007 ft | 315 kts | 105° |
| 2026-04-27 15:19 | 51.56488 | -1.56148 | 26580 ft | 318 kts | 105° |
| 2026-04-27 15:19 | 51.55771 | -1.52782 | 27185 ft | 318 kts | 105° |
| 2026-04-27 15:19 | 51.55053 | -1.49412 | 27772 ft | 320 kts | 104° |
| 2026-04-27 15:20 | 51.54327 | -1.46011 | 28309 ft | 323 kts | 104° |
| 2026-04-27 15:20 | 51.53593 | -1.42577 | 28834 ft | 327 kts | 104° |
| 2026-04-27 15:20 | 51.52847 | -1.39099 | 29325 ft | 331 kts | 104° |
| 2026-04-27 15:20 | 51.52094 | -1.35588 | 29844 ft | 334 kts | 104° |
| 2026-04-27 15:21 | 51.51341 | -1.32087 | 30333 ft | 337 kts | 104° |
| 2026-04-27 15:21 | 51.50572 | -1.28518 | 30751 ft | 340 kts | 104° |
| 2026-04-27 15:21 | 51.49796 | -1.24925 | 31176 ft | 342 kts | 105° |
| 2026-04-27 15:21 | 51.49069 | -1.21295 | 31572 ft | 341 kts | 99° |
| 2026-04-27 15:22 | 51.48626 | -1.17553 | 31959 ft | 342 kts | 97° |
| 2026-04-27 15:22 | 51.48165 | -1.13798 | 32354 ft | 344 kts | 98° |
| 2026-04-27 15:22 | 51.47688 | -1.10021 | 32742 ft | 347 kts | 98° |
| 2026-04-27 15:22 | 51.47216 | -1.06217 | 33117 ft | 349 kts | 98° |
| 2026-04-27 15:23 | 51.46746 | -1.02386 | 33491 ft | 351 kts | 99° |
| 2026-04-27 15:23 | 51.46267 | -0.98525 | 33850 ft | 353 kts | 99° |
| 2026-04-27 15:23 | 51.45782 | -0.94650 | 34212 ft | 356 kts | 100° |
| 2026-04-27 15:23 | 51.45292 | -0.90735 | 34482 ft | 359 kts | 100° |
| 2026-04-27 15:24 | 51.44799 | -0.86797 | 34763 ft | 361 kts | 100° |
| 2026-04-27 15:24 | 51.44302 | -0.82844 | 35032 ft | 364 kts | 101° |
| 2026-04-27 15:24 | 51.43798 | -0.78855 | 35323 ft | 365 kts | 101° |
| 2026-04-27 15:24 | 51.43294 | -0.74866 | 35645 ft | 366 kts | 101° |
| 2026-04-27 15:25 | 51.42958 | -0.72210 | 35857 ft | 366 kts | 101° |
| 2026-04-27 15:25 | 51.42449 | -0.68214 | 36173 ft | 366 kts | 101° |
| 2026-04-27 15:25 | 51.41940 | -0.64215 | 36488 ft | 367 kts | 101° |
| 2026-04-27 15:25 | 51.41429 | -0.60210 | 36801 ft | 367 kts | 101° |
| 2026-04-27 15:26 | 51.40747 | -0.54894 | 37210 ft | 367 kts | 101° |
| 2026-04-27 15:26 | 51.40396 | -0.52171 | 37414 ft | 368 kts | 101° |
| 2026-04-27 15:26 | 51.39885 | -0.48207 | 37709 ft | 368 kts | 101° |
| 2026-04-27 15:26 | 51.39366 | -0.44190 | 38010 ft | 368 kts | 101° |
| 2026-04-27 15:27 | 51.38846 | -0.40180 | 38308 ft | 369 kts | 102° |
| 2026-04-27 15:27 | 51.38322 | -0.36153 | 38601 ft | 369 kts | 102° |
| 2026-04-27 15:27 | 51.37797 | -0.32124 | 38886 ft | 369 kts | 102° |
| 2026-04-27 15:27 | 51.37269 | -0.28091 | 39126 ft | 370 kts | 102° |
| 2026-04-27 15:28 | 51.36741 | -0.24065 | 39358 ft | 369 kts | 102° |
| 2026-04-27 15:28 | 51.36210 | -0.20026 | 39588 ft | 369 kts | 102° |
| 2026-04-27 15:28 | 51.35680 | -0.16004 | 39822 ft | 369 kts | 102° |
| 2026-04-27 15:28 | 51.35154 | -0.12035 | 40053 ft | 369 kts | 102° |
| 2026-04-27 15:29 | 51.34622 | -0.08018 | 40287 ft | 369 kts | 102° |
| 2026-04-27 15:29 | 51.34087 | -0.03997 | 40517 ft | 369 kts | 102° |
| 2026-04-27 15:29 | 51.33553 | 0.00005 | 40751 ft | 368 kts | 102° |
| 2026-04-27 15:29 | 51.32948 | 0.03993 | 40969 ft | 369 kts | 110° |
| 2026-04-27 15:30 | 51.31987 | 0.07793 | 41134 ft | 368 kts | 113° |
| 2026-04-27 15:30 | 51.31024 | 0.11602 | 41237 ft | 372 kts | 112° |
| 2026-04-27 15:30 | 51.29054 | 0.19423 | 41241 ft | 386 kts | 113° |
| 2026-04-27 15:31 | 51.26990 | 0.27501 | 41238 ft | 399 kts | 112° |
| 2026-04-27 15:31 | 51.24880 | 0.35764 | 41221 ft | 409 kts | 113° |
| 2026-04-27 15:32 | 51.22692 | 0.44288 | 41220 ft | 419 kts | 113° |
| 2026-04-27 15:32 | 51.20452 | 0.52987 | 41222 ft | 427 kts | 113° |
| 2026-04-27 15:33 | 51.18165 | 0.61828 | 41238 ft | 434 kts | 113° |
| 2026-04-27 15:33 | 51.15838 | 0.70794 | 41245 ft | 439 kts | 113° |
| 2026-04-27 15:34 | 51.13515 | 0.79711 | 41253 ft | 437 kts | 113° |
| 2026-04-27 15:34 | 51.11182 | 0.88628 | 41264 ft | 435 kts | 113° |
| 2026-04-27 15:35 | 51.08849 | 0.97512 | 41311 ft | 434 kts | 113° |
| 2026-04-27 15:35 | 51.06504 | 1.06402 | 41317 ft | 438 kts | 113° |
| 2026-04-27 15:36 | 51.04133 | 1.15355 | 41319 ft | 440 kts | 113° |
| 2026-04-27 15:36 | 51.01757 | 1.24288 | 41311 ft | 437 kts | 113° |
| 2026-04-27 15:37 | 50.99388 | 1.33160 | 41299 ft | 435 kts | 113° |
| 2026-04-27 15:37 | 50.97039 | 1.41923 | 41292 ft | 434 kts | 114° |
| 2026-04-27 15:38 | 50.94504 | 1.50702 | 41278 ft | 438 kts | 111° |
| 2026-04-27 15:38 | 50.92343 | 1.59690 | 41283 ft | 439 kts | 114° |
| 2026-04-27 15:39 | 50.89823 | 1.68462 | 41281 ft | 436 kts | 114° |
| 2026-04-27 15:39 | 50.86667 | 1.76551 | 41282 ft | 431 kts | 134° |
| 2026-04-27 15:40 | 50.82378 | 1.83167 | 41274 ft | 432 kts | 138° |
| 2026-04-27 15:40 | 50.78018 | 1.89731 | 41293 ft | 434 kts | 138° |
| 2026-04-27 15:41 | 50.73629 | 1.96333 | 41286 ft | 435 kts | 138° |
| 2026-04-27 15:41 | 50.69339 | 2.02766 | 41279 ft | 433 kts | 138° |
| 2026-04-27 15:42 | 50.65006 | 2.09245 | 41261 ft | 431 kts | 138° |
| 2026-04-27 15:42 | 50.60670 | 2.15712 | 41256 ft | 429 kts | 138° |
| 2026-04-27 15:43 | 50.56313 | 2.22193 | 41251 ft | 433 kts | 138° |
| 2026-04-27 15:43 | 50.51922 | 2.28708 | 41255 ft | 434 kts | 139° |
| 2026-04-27 15:44 | 50.47534 | 2.35202 | 41248 ft | 433 kts | 139° |
| 2026-04-27 15:44 | 50.43184 | 2.41619 | 41244 ft | 431 kts | 139° |
| 2026-04-27 15:45 | 50.38819 | 2.48043 | 41238 ft | 429 kts | 139° |
| 2026-04-27 15:45 | 50.34456 | 2.54447 | 41237 ft | 430 kts | 139° |
| 2026-04-27 15:46 | 50.30069 | 2.60868 | 41238 ft | 432 kts | 139° |
| 2026-04-27 15:46 | 50.25666 | 2.67298 | 41240 ft | 434 kts | 139° |
| 2026-04-27 15:47 | 50.21252 | 2.73727 | 41243 ft | 435 kts | 139° |
| 2026-04-27 15:47 | 50.16832 | 2.80146 | 41240 ft | 432 kts | 139° |
| 2026-04-27 15:48 | 50.12440 | 2.86508 | 41237 ft | 430 kts | 139° |
| 2026-04-27 15:49 | 50.05873 | 2.95988 | 41244 ft | 432 kts | 139° |
| 2026-04-27 15:49 | 50.01446 | 3.02359 | 41251 ft | 435 kts | 139° |
| 2026-04-27 15:50 | 49.96997 | 3.08746 | 41254 ft | 434 kts | 139° |
| 2026-04-27 15:50 | 49.92563 | 3.15092 | 41237 ft | 432 kts | 139° |
| 2026-04-27 15:51 | 49.88140 | 3.21407 | 41240 ft | 432 kts | 139° |
| 2026-04-27 15:51 | 49.83695 | 3.27735 | 41242 ft | 435 kts | 139° |
| 2026-04-27 15:52 | 49.79307 | 3.34205 | 41242 ft | 437 kts | 135° |
| 2026-04-27 15:52 | 49.75102 | 3.40920 | 41243 ft | 435 kts | 135° |
| 2026-04-27 15:53 | 49.70873 | 3.47594 | 41238 ft | 433 kts | 135° |
| 2026-04-27 15:53 | 49.66669 | 3.54243 | 41234 ft | 431 kts | 135° |
| 2026-04-27 15:54 | 49.62468 | 3.60857 | 41245 ft | 432 kts | 135° |
| 2026-04-27 15:54 | 49.58261 | 3.67465 | 41248 ft | 437 kts | 135° |
| 2026-04-27 15:55 | 49.54000 | 3.74141 | 41249 ft | 436 kts | 135° |
| 2026-04-27 15:55 | 49.49739 | 3.80799 | 41244 ft | 435 kts | 135° |
| 2026-04-27 15:56 | 49.45492 | 3.87417 | 41229 ft | 433 kts | 135° |
| 2026-04-27 15:56 | 49.41257 | 3.94001 | 41226 ft | 432 kts | 135° |
| 2026-04-27 15:57 | 49.37029 | 4.00556 | 41230 ft | 431 kts | 135° |
| 2026-04-27 15:57 | 49.32797 | 4.07101 | 41231 ft | 433 kts | 135° |
| 2026-04-27 15:58 | 49.28564 | 4.13628 | 41236 ft | 435 kts | 135° |
| 2026-04-27 15:58 | 49.24282 | 4.20216 | 41240 ft | 437 kts | 135° |
| 2026-04-27 15:59 | 49.19993 | 4.26797 | 41204 ft | 434 kts | 135° |
| 2026-04-27 15:59 | 49.15739 | 4.33307 | 41206 ft | 431 kts | 135° |
| 2026-04-27 15:59 | 49.13772 | 4.36757 | 41207 ft | 431 kts | 124° |
| 2026-04-27 16:00 | 49.12243 | 4.40688 | 41233 ft | 432 kts | 118° |
| 2026-04-27 16:00 | 49.09375 | 4.48748 | 41237 ft | 437 kts | 118° |
| 2026-04-27 16:01 | 49.06456 | 4.56850 | 41234 ft | 434 kts | 118° |
| 2026-04-27 16:01 | 49.03565 | 4.64884 | 41229 ft | 431 kts | 118° |
| 2026-04-27 16:02 | 49.00660 | 4.72917 | 41231 ft | 433 kts | 118° |
| 2026-04-27 16:02 | 48.97742 | 4.80964 | 41221 ft | 435 kts | 118° |
| 2026-04-27 16:03 | 48.94804 | 4.89040 | 41226 ft | 436 kts | 118° |
| 2026-04-27 16:03 | 48.91860 | 4.97112 | 41218 ft | 436 kts | 118° |
| 2026-04-27 16:04 | 48.88939 | 5.05081 | 41209 ft | 433 kts | 119° |
| 2026-04-27 16:04 | 48.85616 | 5.12701 | 41206 ft | 433 kts | 123° |
| 2026-04-27 16:05 | 48.82266 | 5.20312 | 41211 ft | 434 kts | 123° |
| 2026-04-27 16:05 | 48.78880 | 5.27940 | 41210 ft | 436 kts | 123° |
| 2026-04-27 16:06 | 48.75487 | 5.35581 | 41215 ft | 437 kts | 123° |
| 2026-04-27 16:06 | 48.72081 | 5.43223 | 41217 ft | 437 kts | 123° |
| 2026-04-27 16:07 | 48.68687 | 5.50817 | 41211 ft | 434 kts | 123° |
| 2026-04-27 16:07 | 48.65304 | 5.58367 | 41202 ft | 432 kts | 123° |
| 2026-04-27 16:08 | 48.61942 | 5.65848 | 41198 ft | 434 kts | 123° |
| 2026-04-27 16:08 | 48.58536 | 5.73405 | 41197 ft | 436 kts | 123° |
| 2026-04-27 16:09 | 48.55101 | 5.81007 | 41194 ft | 437 kts | 124° |
| 2026-04-27 16:09 | 48.49969 | 5.92324 | 41179 ft | 433 kts | 124° |
| 2026-04-27 16:10 | 48.43173 | 6.07238 | 41194 ft | 434 kts | 124° |
| 2026-04-27 16:11 | 48.38018 | 6.18494 | 41196 ft | 437 kts | 124° |
| 2026-04-27 16:12 | 48.33418 | 6.28499 | 41191 ft | 435 kts | 124° |
| 2026-04-27 16:13 | 48.28257 | 6.39683 | 41184 ft | 433 kts | 124° |
| 2026-04-27 16:13 | 48.23107 | 6.50796 | 41182 ft | 433 kts | 124° |
| 2026-04-27 16:14 | 48.16216 | 6.65596 | 41175 ft | 435 kts | 124° |
| 2026-04-27 16:15 | 48.09249 | 6.80475 | 41181 ft | 437 kts | 125° |
| 2026-04-27 16:16 | 48.05752 | 6.87916 | 41071 ft | 435 kts | 125° |
| 2026-04-27 16:16 | 48.02268 | 6.95303 | 40557 ft | 434 kts | 125° |
| 2026-04-27 16:17 | 47.98800 | 7.02642 | 39988 ft | 432 kts | 125° |
| 2026-04-27 16:17 | 47.95346 | 7.09931 | 39422 ft | 430 kts | 125° |
| 2026-04-27 16:18 | 47.91892 | 7.17197 | 38856 ft | 430 kts | 125° |
| 2026-04-27 16:18 | 47.88441 | 7.24442 | 38240 ft | 431 kts | 125° |
| 2026-04-27 16:19 | 47.86708 | 7.28073 | 37953 ft | 430 kts | 125° |
| 2026-04-27 16:19 | 47.85047 | 7.31547 | 37678 ft | 430 kts | 125° |
| 2026-04-27 16:20 | 47.79879 | 7.42329 | 36836 ft | 431 kts | 125° |
| 2026-04-27 16:20 | 47.78136 | 7.45957 | 36542 ft | 432 kts | 126° |
| 2026-04-27 16:20 | 47.74642 | 7.52991 | 35974 ft | 432 kts | 134° |
| 2026-04-27 16:21 | 47.72294 | 7.55785 | 35704 ft | 431 kts | 148° |
| 2026-04-27 16:21 | 47.64317 | 7.61504 | 34858 ft | 431 kts | 156° |
| 2026-04-27 16:22 | 47.61614 | 7.63432 | 34579 ft | 430 kts | 156° |
| 2026-04-27 16:22 | 47.56209 | 7.67231 | 33990 ft | 430 kts | 157° |
| 2026-04-27 16:22 | 47.53554 | 7.69086 | 33680 ft | 430 kts | 156° |
| 2026-04-27 16:23 | 47.50886 | 7.70958 | 33410 ft | 431 kts | 156° |
| 2026-04-27 16:23 | 47.45456 | 7.74760 | 32841 ft | 432 kts | 156° |
| 2026-04-27 16:23 | 47.42729 | 7.76663 | 32554 ft | 434 kts | 156° |
| 2026-04-27 16:24 | 47.40000 | 7.78566 | 32261 ft | 435 kts | 156° |
| 2026-04-27 16:24 | 47.34508 | 7.82390 | 31692 ft | 437 kts | 156° |
| 2026-04-27 16:25 | 47.28988 | 7.86224 | 31110 ft | 439 kts | 156° |
| 2026-04-27 16:25 | 47.23459 | 7.90054 | 30532 ft | 440 kts | 156° |
| 2026-04-27 16:26 | 47.17906 | 7.93894 | 29917 ft | 441 kts | 156° |
| 2026-04-27 16:26 | 47.12373 | 7.97711 | 29333 ft | 444 kts | 156° |
| 2026-04-27 16:27 | 47.06775 | 8.01565 | 28749 ft | 442 kts | 156° |
| 2026-04-27 16:27 | 46.98388 | 8.07318 | 27874 ft | 445 kts | 156° |
| 2026-04-27 16:28 | 46.92773 | 8.11161 | 27285 ft | 443 kts | 156° |
| 2026-04-27 16:28 | 46.87264 | 8.14922 | 26700 ft | 432 kts | 156° |
| 2026-04-27 16:29 | 46.79237 | 8.20386 | 25867 ft | 422 kts | 156° |
| 2026-04-27 16:30 | 46.73869 | 8.24017 | 25314 ft | 421 kts | 157° |
| 2026-04-27 16:30 | 46.68618 | 8.27606 | 24767 ft | 417 kts | 157° |
| 2026-04-27 16:31 | 46.60796 | 8.32875 | 23939 ft | 409 kts | 156° |
| 2026-04-27 16:31 | 46.55826 | 8.36222 | 23378 ft | 405 kts | 157° |
| 2026-04-27 16:32 | 46.50729 | 8.39647 | 22836 ft | 402 kts | 156° |
| 2026-04-27 16:32 | 46.48188 | 8.41353 | 22555 ft | 401 kts | 157° |
| 2026-04-27 16:33 | 46.43133 | 8.44738 | 22025 ft | 399 kts | 157° |
| 2026-04-27 16:33 | 46.40617 | 8.46426 | 21761 ft | 398 kts | 157° |
| 2026-04-27 16:33 | 46.38251 | 8.48010 | 21509 ft | 393 kts | 157° |
| 2026-04-27 16:33 | 46.35749 | 8.49676 | 21240 ft | 392 kts | 157° |
| 2026-04-27 16:34 | 46.33276 | 8.51328 | 21134 ft | 390 kts | 157° |
| 2026-04-27 16:34 | 46.30804 | 8.52977 | 21104 ft | 392 kts | 157° |
| 2026-04-27 16:34 | 46.28324 | 8.54626 | 21101 ft | 392 kts | 157° |
| 2026-04-27 16:34 | 46.25851 | 8.56274 | 21097 ft | 392 kts | 157° |
| 2026-04-27 16:35 | 46.23378 | 8.57916 | 21088 ft | 390 kts | 157° |
| 2026-04-27 16:35 | 46.20932 | 8.59542 | 21089 ft | 392 kts | 157° |
| 2026-04-27 16:35 | 46.15942 | 8.62846 | 21081 ft | 391 kts | 157° |
| 2026-04-27 16:36 | 46.13517 | 8.64455 | 21081 ft | 392 kts | 157° |
| 2026-04-27 16:36 | 46.11031 | 8.66096 | 21079 ft | 393 kts | 157° |
| 2026-04-27 16:36 | 46.08595 | 8.67913 | 21074 ft | 395 kts | 153° |
| 2026-04-27 16:36 | 46.06231 | 8.69807 | 20502 ft | 381 kts | 153° |
| 2026-04-27 16:37 | 46.03888 | 8.71643 | 19078 ft | 384 kts | 153° |
| 2026-04-27 16:37 | 46.01564 | 8.73440 | 17987 ft | 374 kts | 153° |
| 2026-04-27 16:37 | 45.99304 | 8.75210 | 17115 ft | 360 kts | 152° |
| 2026-04-27 16:37 | 45.97146 | 8.76907 | 17017 ft | 360 kts | 153° |
| 2026-04-27 16:38 | 45.94916 | 8.78641 | 16742 ft | 360 kts | 153° |
| 2026-04-27 16:38 | 45.92696 | 8.80373 | 16539 ft | 367 kts | 153° |
| 2026-04-27 16:38 | 45.90460 | 8.82114 | 16311 ft | 364 kts | 153° |
| 2026-04-27 16:38 | 45.88239 | 8.83848 | 16076 ft | 363 kts | 153° |
| 2026-04-27 16:39 | 45.86014 | 8.85575 | 15837 ft | 363 kts | 152° |
| 2026-04-27 16:39 | 45.83798 | 8.87300 | 15603 ft | 361 kts | 152° |
| 2026-04-27 16:39 | 45.81619 | 8.88989 | 15365 ft | 359 kts | 152° |
| 2026-04-27 16:39 | 45.79402 | 8.90710 | 15129 ft | 356 kts | 152° |
| 2026-04-27 16:40 | 45.77256 | 8.92374 | 14902 ft | 354 kts | 152° |
| 2026-04-27 16:40 | 45.75088 | 8.94049 | 14672 ft | 354 kts | 152° |
| 2026-04-27 16:40 | 45.72916 | 8.95733 | 14444 ft | 354 kts | 152° |
| 2026-04-27 16:40 | 45.70752 | 8.97404 | 14212 ft | 352 kts | 152° |
| 2026-04-27 16:41 | 45.68607 | 8.99063 | 13976 ft | 349 kts | 152° |
| 2026-04-27 16:41 | 45.66474 | 9.00708 | 13735 ft | 348 kts | 152° |
| 2026-04-27 16:41 | 45.64350 | 9.02344 | 13506 ft | 346 kts | 152° |
| 2026-04-27 16:41 | 45.62229 | 9.03977 | 13271 ft | 347 kts | 152° |
| 2026-04-27 16:42 | 45.60105 | 9.05605 | 13022 ft | 346 kts | 152° |
| 2026-04-27 16:42 | 45.58014 | 9.07211 | 12793 ft | 344 kts | 152° |
| 2026-04-27 16:42 | 45.55879 | 9.08849 | 12558 ft | 344 kts | 152° |
| 2026-04-27 16:42 | 45.53798 | 9.10439 | 12300 ft | 344 kts | 152° |
| 2026-04-27 16:43 | 45.51689 | 9.12015 | 12055 ft | 339 kts | 156° |
| 2026-04-27 16:43 | 45.49410 | 9.12852 | 11840 ft | 338 kts | 173° |
| 2026-04-27 16:43 | 45.47069 | 9.13138 | 11628 ft | 337 kts | 176° |
| 2026-04-27 16:43 | 45.44723 | 9.13389 | 11410 ft | 337 kts | 176° |
| 2026-04-27 16:44 | 45.42392 | 9.13644 | 11181 ft | 335 kts | 176° |
| 2026-04-27 16:44 | 45.40076 | 9.13908 | 10973 ft | 333 kts | 176° |
| 2026-04-27 16:44 | 45.37765 | 9.14171 | 10744 ft | 332 kts | 176° |
| 2026-04-27 16:44 | 45.35496 | 9.14422 | 10533 ft | 330 kts | 176° |
| 2026-04-27 16:45 | 45.33236 | 9.14676 | 10022 ft | 320 kts | 176° |
| 2026-04-27 16:45 | 45.31095 | 9.14917 | 9627 ft | 296 kts | 176° |
| 2026-04-27 16:45 | 45.29083 | 9.15142 | 8892 ft | 288 kts | 176° |
| 2026-04-27 16:45 | 45.27091 | 9.15365 | 8084 ft | 285 kts | 176° |
| 2026-04-27 16:46 | 45.25122 | 9.15577 | 7325 ft | 281 kts | 176° |
| 2026-04-27 16:46 | 45.23180 | 9.15799 | 6574 ft | 278 kts | 175° |
| 2026-04-27 16:46 | 45.21263 | 9.16020 | 5802 ft | 273 kts | 174° |
| 2026-04-27 16:46 | 45.19510 | 9.16960 | 4977 ft | 273 kts | 142° |
| 2026-04-27 16:47 | 45.18448 | 9.19108 | 4240 ft | 268 kts | 108° |
| 2026-04-27 16:47 | 45.18213 | 9.21701 | 3500 ft | 264 kts | 92° |
| 2026-04-27 16:47 | 45.18226 | 9.24276 | 3008 ft | 259 kts | 89° |
| 2026-04-27 16:47 | 45.18287 | 9.26771 | 2996 ft | 260 kts | 88° |
| 2026-04-27 16:48 | 45.18690 | 9.29248 | 2985 ft | 262 kts | 60° |
| 2026-04-27 16:48 | 45.20032 | 9.30950 | 2982 ft | 265 kts | 24° |
| 2026-04-27 16:48 | 45.21870 | 9.31239 | 2982 ft | 268 kts | 349° |
| 2026-04-27 16:49 | 45.25339 | 9.29763 | 2991 ft | 249 kts | 351° |
| 2026-04-27 16:49 | 45.26978 | 9.29565 | 2971 ft | 225 kts | 356° |
| 2026-04-27 16:49 | 45.28466 | 9.29423 | 2977 ft | 201 kts | 355° |
| 2026-04-27 16:49 | 45.29808 | 9.29283 | 2929 ft | 192 kts | 355° |
| 2026-04-27 16:50 | 45.31158 | 9.29142 | 2702 ft | 195 kts | 355° |
| 2026-04-27 16:50 | 45.32507 | 9.28998 | 2444 ft | 194 kts | 355° |
| 2026-04-27 16:50 | 45.33853 | 9.28854 | 2192 ft | 191 kts | 355° |
| 2026-04-27 16:50 | 45.35140 | 9.28717 | 1938 ft | 180 kts | 355° |
| 2026-04-27 16:51 | 45.36359 | 9.28586 | 1701 ft | 172 kts | 355° |
| 2026-04-27 16:51 | 45.37534 | 9.28463 | 1479 ft | 169 kts | 355° |
| 2026-04-27 16:51 | 45.38696 | 9.28334 | 1265 ft | 165 kts | 355° |
| 2026-04-27 16:51 | 45.39742 | 9.28223 | 1082 ft | 141 kts | 355° |
| 2026-04-27 16:52 | 45.40709 | 9.28106 | 891 ft | 137 kts | 356° |
| 2026-04-27 16:52 | 45.41676 | 9.28002 | 754 ft | 145 kts | 355° |
| 2026-04-27 16:52 | 45.42661 | 9.27895 | 547 ft | 140 kts | 356° |
| 2026-04-27 16:52 | 45.43620 | 9.27800 | 378 ft | 135 kts | 356° |
| 2026-04-27 16:53 | 45.44444 | 9.27714 | 356 ft | 91 kts | 355° |
| 2026-04-27 16:53 | 45.44795 | 9.27673 | 360 ft | 20 kts | 351° |
| 2026-04-27 16:53 | 45.44908 | 9.27570 | 357 ft | 19 kts | 312° |
| 2026-04-27 16:53 | 45.44992 | 9.27429 | 359 ft | 15 kts | 306° |
| 2026-04-27 16:54 | 45.45046 | 9.27309 | 356 ft | 14 kts | 301° |
| 2026-04-27 16:54 | 45.45089 | 9.27187 | 356 ft | 13 kts | 292° |
| 2026-04-27 16:54 | 45.45123 | 9.27069 | 359 ft | 13 kts | 292° |
| 2026-04-27 16:54 | 45.45155 | 9.26952 | 367 ft | 12 kts | 291° |
| 2026-04-27 16:55 | 45.45166 | 9.26831 | 355 ft | 12 kts | 266° |
| 2026-04-27 16:55 | 45.45168 | 9.26715 | 357 ft | 13 kts | 292° |
| 2026-04-27 16:55 | 45.45212 | 9.26573 | 358 ft | 19 kts | 294° |
| 2026-04-27 16:55 | 45.45278 | 9.26404 | 355 ft | 19 kts | 309° |
| 2026-04-27 16:56 | 45.45365 | 9.26320 | 355 ft | 7 kts | 335° |
| 2026-04-27 16:56 | 45.45380 | 9.26284 | 355 ft | 5 kts | 249° |
| 2026-04-27 16:56 | 45.45368 | 9.26241 | 357 ft | 1 kts | 249° |
| 2026-04-27 16:56 | 45.45366 | 9.26233 | 355 ft | 0 kts | 249° |